Time;durP1;ratioP1;P1;durP2;ratioP2;P2;SDS_P1;SDS_P2;PMS_P1;PMS_P2;Temp;Humidity;BMP_temperature;BMP_pressure;BME280_temperature;BME280_humidity;BME280_pressure;Samples;Min_cycle;Max_cycle;Signal;HPM_P1;HPM_P2
2022/03/01 00:01:36;;;;;;;30.42;13.70;;;;;;;3.52;66.29;102500.81;5068651;28;20109;-78
2022/03/01 00:04:03;;;;;;;29.38;12.18;;;;;;;3.51;67.91;102519.16;5067964;28;20416;-77
2022/03/01 00:06:30;;;;;;;28.42;11.75;;;;;;;3.52;68.82;102526.25;5064284;28;20589;-77
2022/03/01 00:08:56;;;;;;;38.38;12.95;;;;;;;3.50;68.11;102525.75;5058884;28;20055;-78
2022/03/01 00:11:23;;;;;;;31.55;12.88;;;;;;;3.50;66.50;102523.00;5066407;28;20348;-77
2022/03/01 00:13:50;;;;;;;32.03;13.90;;;;;;;3.45;67.71;102520.41;5055786;28;20057;-79
2022/03/01 00:16:17;;;;;;;34.63;14.93;;;;;;;3.50;67.28;102528.47;5075388;28;20142;-77
2022/03/01 00:18:44;;;;;;;29.48;14.35;;;;;;;3.44;69.24;102521.50;5065935;28;20557;-79
2022/03/01 00:21:11;;;;;;;33.38;15.07;;;;;;;3.48;67.74;102522.50;5068841;28;20127;-78
2022/03/01 00:23:38;;;;;;;29.13;13.05;;;;;;;3.46;67.70;102526.66;5065441;28;20080;-76
2022/03/01 00:26:05;;;;;;;29.90;13.23;;;;;;;3.41;67.16;102513.88;5069932;28;20052;-78
2022/03/01 00:28:34;;;;;;;27.02;13.02;;;;;;;3.39;69.41;102529.81;5073221;28;20048;-78
2022/03/01 00:31:00;;;;;;;27.77;12.60;;;;;;;3.27;69.65;102521.31;5062329;28;20656;-77
2022/03/01 00:33:27;;;;;;;33.70;12.13;;;;;;;3.15;72.40;102512.81;5067948;28;20048;-78
2022/03/01 00:35:53;;;;;;;25.05;11.57;;;;;;;3.18;71.09;102523.16;5068105;28;20083;-79
2022/03/01 00:38:20;;;;;;;26.92;11.48;;;;;;;3.15;71.18;102514.72;5069183;28;20052;-77
2022/03/01 00:40:46;;;;;;;25.63;10.57;;;;;;;3.14;72.57;102516.63;5067955;28;20151;-78
2022/03/01 00:43:13;;;;;;;23.35;11.05;;;;;;;3.14;71.01;102511.16;5069702;28;20079;-79
2022/03/01 00:45:40;;;;;;;25.20;11.43;;;;;;;3.10;70.99;102504.69;5072606;28;20044;-79
2022/03/01 00:48:07;;;;;;;25.50;10.77;;;;;;;3.04;74.86;102500.47;5070343;28;20047;-77
2022/03/01 00:50:33;;;;;;;32.70;11.00;;;;;;;3.02;73.96;102499.94;5071196;28;20136;-78
2022/03/01 00:53:00;;;;;;;21.67;10.18;;;;;;;3.07;75.00;102509.97;5076951;28;20080;-77
2022/03/01 00:55:27;;;;;;;28.80;11.02;;;;;;;3.04;74.98;102505.09;5065550;28;20072;-76
2022/03/01 00:57:53;;;;;;;18.85;8.85;;;;;;;3.01;75.06;102508.44;5074352;28;20139;-81
2022/03/01 01:00:20;;;;;;;22.60;9.63;;;;;;;2.98;75.39;102503.59;5072271;28;20592;-78
2022/03/01 01:02:48;;;;;;;20.02;9.60;;;;;;;2.99;73.20;102510.66;5070117;28;20084;-79
2022/03/01 01:05:15;;;;;;;23.13;9.45;;;;;;;2.95;71.65;102507.75;5069040;28;20136;-77
2022/03/01 01:07:42;;;;;;;21.42;8.55;;;;;;;2.91;73.71;102501.25;5083274;28;20076;-78
2022/03/01 01:10:09;;;;;;;22.25;8.95;;;;;;;2.95;75.88;102502.28;5070054;28;20087;-79
2022/03/01 01:12:36;;;;;;;22.70;9.30;;;;;;;2.92;73.59;102502.88;5071341;28;20464;-77
2022/03/01 01:15:04;;;;;;;21.27;8.93;;;;;;;2.82;73.93;102489.41;5081434;28;20048;-78
2022/03/01 01:17:31;;;;;;;22.90;9.18;;;;;;;2.78;76.09;102493.84;5073877;28;20075;-77
2022/03/01 01:19:58;;;;;;;19.40;9.57;;;;;;;2.78;72.92;102495.75;5072103;28;20131;-79
2022/03/01 01:22:40;;;;;;;26.10;10.25;;;;;;;2.75;74.12;102491.72;5073843;28;20728;-78
2022/03/01 01:25:18;;;;;;;21.40;9.90;;;;;;;2.73;73.30;102504.88;5060489;28;20077;-80
2022/03/01 01:27:48;;;;;;;23.23;10.40;;;;;;;2.70;73.90;102500.00;5077022;28;20123;-79
2022/03/01 01:30:17;;;;;;;21.95;9.55;;;;;;;2.65;73.55;102502.84;5072331;28;20045;-77
2022/03/01 01:32:44;;;;;;;20.63;10.40;;;;;;;2.60;76.53;102494.75;5068795;28;20053;-78
2022/03/01 01:35:12;;;;;;;25.08;10.07;;;;;;;2.59;76.71;102501.31;5073119;28;20138;-77
2022/03/01 01:37:39;;;;;;;24.02;10.30;;;;;;;2.59;75.12;102499.41;5074788;28;20036;-79
2022/03/01 01:40:12;;;;;;;21.40;10.00;;;;;;;2.60;74.34;102502.94;5069469;28;20145;-80
2022/03/01 01:42:39;;;;;;;27.45;10.75;;;;;;;2.59;73.29;102498.56;5074100;28;20493;-81
2022/03/01 01:45:06;;;;;;;23.05;10.75;;;;;;;2.59;76.46;102495.84;5069465;28;20451;-80
2022/03/01 01:47:45;;;;;;;22.08;10.48;;;;;;;2.54;75.93;102499.47;5067864;28;20417;-77
2022/03/01 01:50:12;;;;;;;26.30;12.55;;;;;;;2.53;75.30;102494.28;5068060;28;20135;-77
2022/03/01 01:52:39;;;;;;;23.52;10.95;;;;;;;2.47;75.19;102490.06;5067048;28;20076;-76
2022/03/01 01:55:06;;;;;;;21.50;10.43;;;;;;;2.45;77.60;102495.81;5074897;28;20131;-78
2022/03/01 01:57:33;;;;;;;24.20;10.80;;;;;;;2.43;77.96;102491.78;5079967;28;20079;-77
2022/03/01 02:00:00;;;;;;;25.63;11.70;;;;;;;2.41;77.67;102486.59;5070199;28;20072;-79
2022/03/01 02:02:27;;;;;;;24.35;10.07;;;;;;;2.43;78.85;102497.25;5069168;28;20098;-77
2022/03/01 02:04:54;;;;;;;22.90;9.60;;;;;;;2.37;77.40;102482.84;5075919;28;20429;-79
2022/03/01 02:07:21;;;;;;;24.10;10.27;;;;;;;2.41;76.54;102493.97;5066211;28;20052;-78
2022/03/01 02:09:48;;;;;;;28.08;12.60;;;;;;;2.44;78.08;102488.72;5068353;28;20044;-79
2022/03/01 02:12:14;;;;;;;32.55;13.43;;;;;;;2.40;79.80;102473.25;5070887;28;20049;-79
2022/03/01 02:14:41;;;;;;;22.67;11.38;;;;;;;2.45;79.90;102484.88;5070170;28;20477;-79
2022/03/01 02:17:09;;;;;;;25.88;12.43;;;;;;;2.41;78.97;102481.16;5069044;28;20056;-80
2022/03/01 02:19:38;;;;;;;25.73;11.70;;;;;;;2.40;80.01;102467.78;5070794;28;20155;-76
2022/03/01 02:22:06;;;;;;;26.15;11.30;;;;;;;2.38;79.84;102470.00;5072583;28;20049;-78
2022/03/01 02:24:33;;;;;;;23.35;10.88;;;;;;;2.40;81.75;102474.03;5064368;28;20520;-78
2022/03/01 02:27:03;;;;;;;27.85;12.00;;;;;;;2.41;82.00;102472.13;5072364;28;20139;-78
2022/03/01 02:29:30;;;;;;;29.98;11.82;;;;;;;2.38;81.38;102470.81;5064577;28;20739;-80
2022/03/01 02:32:00;;;;;;;25.83;11.95;;;;;;;2.40;82.97;102474.03;5068878;28;20056;-77
2022/03/01 02:34:27;;;;;;;27.85;12.25;;;;;;;2.46;81.94;102477.50;5069434;28;20159;-79
2022/03/01 02:36:53;;;;;;;29.38;12.38;;;;;;;2.46;82.14;102477.50;5069980;28;20107;-79
2022/03/01 02:39:20;;;;;;;31.05;13.35;;;;;;;2.46;81.29;102472.84;5069093;28;20131;-78
2022/03/01 02:41:47;;;;;;;32.85;12.93;;;;;;;2.52;80.15;102479.03;5069781;28;20087;-77
2022/03/01 02:44:14;;;;;;;34.25;13.25;;;;;;;2.47;80.38;102469.00;5068369;28;20052;-78
2022/03/01 02:46:42;;;;;;;28.55;13.23;;;;;;;2.48;81.33;102469.81;5068468;28;20156;-79
2022/03/01 02:49:09;;;;;;;27.48;12.57;;;;;;;2.48;80.44;102476.09;5070014;28;20044;-77
2022/03/01 02:51:38;;;;;;;28.48;13.05;;;;;;;2.51;81.67;102478.22;5069821;28;20059;-77
2022/03/01 02:54:05;;;;;;;27.48;13.10;;;;;;;2.53;80.37;102472.44;5070214;28;20098;-77
2022/03/01 02:56:32;;;;;;;31.05;13.85;;;;;;;2.51;81.62;102472.78;5069513;28;20057;-78
2022/03/01 02:58:59;;;;;;;25.75;11.93;;;;;;;2.46;79.38;102474.75;5069126;28;20051;-77
2022/03/01 03:01:27;;;;;;;25.65;12.23;;;;;;;2.45;82.45;102475.88;5067973;28;20072;-80
2022/03/01 03:03:55;;;;;;;29.23;12.85;;;;;;;2.43;82.37;102473.44;5068693;28;20076;-79
2022/03/01 03:06:22;;;;;;;24.48;11.80;;;;;;;2.38;81.60;102475.44;5068264;28;20091;-76
2022/03/01 03:08:49;;;;;;;30.95;13.57;;;;;;;2.37;82.81;102477.38;5069047;28;20570;-78
2022/03/01 03:11:15;;;;;;;25.42;12.00;;;;;;;2.43;82.16;102483.56;5068122;28;20052;-78
2022/03/01 03:13:42;;;;;;;32.08;14.00;;;;;;;2.34;82.37;102468.97;5069422;28;20124;-77
2022/03/01 03:16:10;;;;;;;25.95;12.43;;;;;;;2.39;82.09;102477.88;5067696;28;20060;-79
2022/03/01 03:18:38;;;;;;;28.15;12.38;;;;;;;2.36;82.14;102477.66;5068833;28;20508;-79
2022/03/01 03:21:05;;;;;;;28.70;13.20;;;;;;;2.40;83.33;102468.56;5067443;28;20052;-77
2022/03/01 03:23:32;;;;;;;30.35;13.57;;;;;;;2.42;84.07;102458.16;5069357;28;20151;-78
2022/03/01 03:26:00;;;;;;;27.17;13.82;;;;;;;2.43;84.10;102453.53;5058287;28;20130;-77
2022/03/01 03:28:26;;;;;;;29.23;13.15;;;;;;;2.46;84.12;102466.56;5064116;28;20041;-77
2022/03/01 03:30:54;;;;;;;24.42;11.25;;;;;;;2.49;84.33;102460.50;5068928;28;20139;-77
2022/03/01 03:33:21;;;;;;;25.33;12.00;;;;;;;2.52;84.69;102457.16;5067487;28;20139;-77
2022/03/01 03:35:49;;;;;;;26.60;12.80;;;;;;;2.54;84.68;102457.69;5067622;28;20109;-78
2022/03/01 03:38:16;;;;;;;25.15;11.73;;;;;;;2.54;84.00;102457.69;5069173;28;20044;-77
2022/03/01 03:40:43;;;;;;;26.73;11.02;;;;;;;2.54;83.06;102457.69;5068621;28;20056;-79
2022/03/01 03:43:10;;;;;;;23.85;11.07;;;;;;;2.50;81.94;102457.47;5068196;28;20082;-77
2022/03/01 03:45:37;;;;;;;23.38;10.45;;;;;;;2.43;83.26;102440.66;5067909;28;20099;-76
2022/03/01 03:48:04;;;;;;;24.52;11.48;;;;;;;2.41;82.57;102444.81;5066566;28;20159;-80
2022/03/01 03:50:31;;;;;;;27.38;10.95;;;;;;;2.43;81.11;102453.53;5068520;28;20148;-78
2022/03/01 03:52:58;;;;;;;25.73;10.90;;;;;;;2.41;81.20;102451.09;5067373;28;20501;-78
2022/03/01 03:55:24;;;;;;;28.60;11.18;;;;;;;2.39;81.90;102447.00;5068359;28;20084;-81
2022/03/01 03:57:51;;;;;;;30.35;11.10;;;;;;;2.33;80.86;102446.31;5067310;28;20661;-79
2022/03/01 04:00:18;;;;;;;25.50;11.13;;;;;;;2.35;82.18;102437.81;5069531;28;20172;-78
2022/03/01 04:02:51;;;;;;;27.70;11.20;;;;;;;2.32;82.81;102438.41;5068075;28;20080;-79
2022/03/01 04:05:18;;;;;;;23.90;10.43;;;;;;;2.32;83.17;102449.34;5072243;28;20450;-77
2022/03/01 04:07:47;;;;;;;25.55;10.73;;;;;;;2.27;84.16;102442.03;5071889;28;20048;-79
2022/03/01 04:10:14;;;;;;;26.98;11.07;;;;;;;2.32;82.76;102443.88;5069255;28;20044;-77
2022/03/01 04:12:41;;;;;;;23.83;9.57;;;;;;;2.30;84.05;102446.91;5069282;28;20541;-79
2022/03/01 04:15:10;;;;;;;23.17;10.02;;;;;;;2.33;84.88;102446.31;5068483;28;20106;-77
2022/03/01 04:17:37;;;;;;;22.50;9.88;;;;;;;2.27;83.95;102438.50;5062363;28;20048;-77
2022/03/01 04:20:05;;;;;;;26.27;10.70;;;;;;;2.20;83.75;102446.28;5068787;28;20109;-77
2022/03/01 04:22:31;;;;;;;27.35;10.65;;;;;;;2.18;85.45;102445.75;5068055;28;20052;-78
2022/03/01 04:24:58;;;;;;;24.40;10.40;;;;;;;2.15;85.15;102441.72;5067486;28;20532;-77
2022/03/01 04:27:25;;;;;;;28.80;11.05;;;;;;;2.11;84.34;102435.25;5074208;28;20106;-79
2022/03/01 04:29:52;;;;;;;25.48;10.65;;;;;;;2.14;85.62;102447.47;5069127;28;20151;-77
2022/03/01 04:32:18;;;;;;;22.98;9.98;;;;;;;2.14;83.79;102447.47;5068428;28;20131;-77
2022/03/01 04:34:45;;;;;;;26.55;10.77;;;;;;;2.08;84.95;102438.56;5068412;28;20056;-78
2022/03/01 04:37:12;;;;;;;21.98;10.13;;;;;;;2.10;83.86;102447.25;5069772;28;20063;-78
2022/03/01 04:39:38;;;;;;;26.42;10.07;;;;;;;2.08;85.25;102445.94;5068269;28;20059;-78
2022/03/01 04:42:07;;;;;;;22.38;10.27;;;;;;;2.09;85.89;102442.09;5067880;28;20543;-77
2022/03/01 04:44:34;;;;;;;21.83;10.00;;;;;;;2.13;85.89;102443.91;5069774;28;20059;-76
2022/03/01 04:47:02;;;;;;;22.55;9.27;;;;;;;2.18;86.57;102445.75;5070149;28;20505;-78
2022/03/01 04:49:30;;;;;;;32.17;13.32;;;;;;;2.18;85.23;102449.31;5069120;28;20072;-77
2022/03/01 04:51:56;;;;;;;28.83;12.27;;;;;;;2.14;87.27;102453.75;5069757;28;20048;-78
2022/03/01 04:54:23;;;;;;;22.83;10.02;;;;;;;2.13;87.04;102445.84;5068039;28;20088;-78
2022/03/01 04:56:50;;;;;;;24.58;10.60;;;;;;;2.07;85.98;102438.84;5069503;28;20087;-78
2022/03/01 04:59:17;;;;;;;28.08;16.27;;;;;;;2.12;86.15;102441.50;5068943;28;20050;-79
2022/03/01 05:01:43;;;;;;;26.67;11.60;;;;;;;2.06;85.98;102445.44;5073330;28;20086;-78
2022/03/01 05:04:10;;;;;;;20.60;9.77;;;;;;;2.03;86.26;102443.31;5072502;28;20061;-77
2022/03/01 05:06:38;;;;;;;29.50;11.77;;;;;;;2.01;87.07;102442.78;5073413;28;20509;-78
2022/03/01 05:09:05;;;;;;;24.25;10.73;;;;;;;1.99;87.21;102443.06;5074316;28;20564;-77
2022/03/01 05:11:32;;;;;;;26.05;10.82;;;;;;;1.98;88.20;102440.63;5074037;28;20052;-78
2022/03/01 05:14:00;;;;;;;25.83;10.85;;;;;;;1.99;88.30;102434.88;5071154;28;20072;-79
2022/03/01 05:16:26;;;;;;;23.33;10.07;;;;;;;2.00;86.02;102441.16;5072855;28;20465;-78
2022/03/01 05:18:53;;;;;;;25.70;11.25;;;;;;;1.99;87.12;102443.06;5072929;28;20060;-78
2022/03/01 05:21:20;;;;;;;28.17;11.02;;;;;;;1.98;88.35;102435.19;5071154;28;20052;-77
2022/03/01 05:23:47;;;;;;;25.13;11.38;;;;;;;1.95;87.97;102443.97;5072518;28;20101;-77
2022/03/01 05:26:14;;;;;;;22.08;9.98;;;;;;;1.91;88.43;102440.22;5074037;28;20555;-79
2022/03/01 05:28:41;;;;;;;23.38;11.05;;;;;;;1.89;88.14;102442.44;5074650;28;20055;-77
2022/03/01 05:31:08;;;;;;;22.25;10.13;;;;;;;1.89;89.52;102439.72;5072037;28;20152;-78
2022/03/01 05:33:35;;;;;;;21.85;10.45;;;;;;;1.87;88.77;102448.19;5069396;28;20088;-78
2022/03/01 05:36:02;;;;;;;23.50;10.50;;;;;;;1.91;88.72;102454.69;5072241;28;20553;-78
2022/03/01 05:38:29;;;;;;;23.30;10.18;;;;;;;1.90;87.49;102452.25;5071946;28;20041;-79
2022/03/01 05:40:55;;;;;;;25.95;10.10;;;;;;;1.91;87.41;102454.69;5072749;28;20044;-79
2022/03/01 05:43:22;;;;;;;24.05;10.07;;;;;;;1.82;86.93;102447.47;5073140;28;20687;-78
2022/03/01 05:45:48;;;;;;;23.02;10.13;;;;;;;1.86;87.92;102452.00;5073020;28;20072;-80
2022/03/01 05:48:17;;;;;;;25.40;11.13;;;;;;;1.91;88.15;102454.69;5071969;28;20062;-78
2022/03/01 05:50:44;;;;;;;25.63;10.57;;;;;;;1.95;88.22;102463.06;5071173;28;20548;-79
2022/03/01 05:53:11;;;;;;;24.15;10.18;;;;;;;1.90;88.70;102444.88;5071311;28;20485;-79
2022/03/01 05:55:37;;;;;;;22.42;10.68;;;;;;;1.97;88.74;102447.22;5071286;28;20499;-78
2022/03/01 05:58:04;;;;;;;23.30;11.13;;;;;;;2.00;88.58;102447.41;5071708;28;20089;-78
2022/03/01 06:00:31;;;;;;;24.15;11.30;;;;;;;1.99;87.17;102453.19;5068815;28;20087;-78
2022/03/01 06:02:58;;;;;;;23.75;11.10;;;;;;;1.93;88.84;102438.00;5069079;28;20139;-77
2022/03/01 06:05:26;;;;;;;25.67;10.57;;;;;;;2.01;89.74;102453.69;5070167;28;20097;-80
2022/03/01 06:07:53;;;;;;;25.42;11.40;;;;;;;2.01;90.07;102450.97;5070847;28;20076;-77
2022/03/01 06:10:20;;;;;;;24.63;11.05;;;;;;;2.04;90.19;102450.38;5070035;28;20144;-77
2022/03/01 06:12:46;;;;;;;27.38;12.13;;;;;;;2.05;90.10;102444.63;5070624;28;20071;-78
2022/03/01 06:15:13;;;;;;;25.95;11.35;;;;;;;2.07;89.34;102447.88;5068361;28;20171;-77
2022/03/01 06:17:40;;;;;;;25.52;11.15;;;;;;;2.13;90.06;102452.13;5070640;28;20086;-79
2022/03/01 06:20:09;;;;;;;23.00;11.10;;;;;;;2.16;89.72;102456.19;5069802;28;20048;-79
2022/03/01 06:22:36;;;;;;;24.30;9.98;;;;;;;2.22;89.68;102454.97;5070832;28;20052;-78
2022/03/01 06:25:04;;;;;;;27.17;13.40;;;;;;;2.22;88.97;102450.34;5057786;28;20107;-79
2022/03/01 06:27:30;;;;;;;28.25;11.82;;;;;;;2.22;87.89;102453.06;5076646;28;20052;-77
2022/03/01 06:29:57;;;;;;;26.10;11.32;;;;;;;2.21;88.06;102458.81;5070665;28;20048;-78
2022/03/01 06:32:24;;;;;;;31.35;13.13;;;;;;;2.23;87.67;102459.34;5066988;28;20080;-78
2022/03/01 06:34:50;;;;;;;26.58;11.82;;;;;;;2.27;88.17;102463.88;5070727;28;20052;-77
2022/03/01 06:37:37;;;;;;;23.65;11.52;;;;;;;2.28;87.58;102454.59;5070082;28;20054;-78
2022/03/01 06:40:08;;;;;;;27.25;11.90;;;;;;;2.32;88.23;102463.00;5068834;28;20056;-78
2022/03/01 06:42:34;;;;;;;29.65;13.95;;;;;;;2.38;88.49;102470.00;5069055;28;20068;-80
2022/03/01 06:45:02;;;;;;;25.17;11.63;;;;;;;2.43;87.34;102470.72;5070303;28;20082;-80
2022/03/01 06:47:29;;;;;;;26.08;10.20;;;;;;;2.52;87.04;102473.56;5071739;28;20064;-78
2022/03/01 06:49:56;;;;;;;28.48;10.45;;;;;;;2.57;87.68;102478.94;5071503;28;20040;-77
2022/03/01 06:52:23;;;;;;;31.25;11.20;;;;;;;2.68;87.35;102480.38;5072569;28;20636;-76
2022/03/01 06:54:49;;;;;;;21.25;8.73;;;;;;;2.77;86.49;102475.84;5074810;28;20080;-76
2022/03/01 06:57:16;;;;;;;28.33;10.40;;;;;;;2.88;85.34;102476.44;5063648;28;20092;-80
2022/03/01 06:59:43;;;;;;;27.33;11.35;;;;;;;3.00;85.12;102476.75;5075233;28;20416;-77
2022/03/01 07:02:10;;;;;;;24.95;10.35;;;;;;;3.09;83.99;102474.91;5075049;28;20040;-75
2022/03/01 07:04:40;;;;;;;24.15;9.70;;;;;;;3.13;84.10;102471.25;5073754;28;20139;-76
2022/03/01 07:07:06;;;;;;;25.17;9.55;;;;;;;3.19;83.02;102467.31;5077054;28;20056;-75
2022/03/01 07:09:33;;;;;;;34.95;11.02;;;;;;;3.28;83.89;102470.13;5073554;28;20377;-77
2022/03/01 07:12:00;;;;;;;25.45;10.60;;;;;;;3.30;83.27;102465.97;5059923;28;20127;-78
2022/03/01 07:14:26;;;;;;;26.35;10.43;;;;;;;3.36;81.48;102456.53;5071738;28;20456;-75
2022/03/01 07:16:53;;;;;;;29.13;12.20;;;;;;;3.43;80.27;102454.19;5072522;28;20101;-75
2022/03/01 07:19:20;;;;;;;25.58;11.27;;;;;;;3.49;79.66;102461.19;5069687;28;20056;-75
2022/03/01 07:21:47;;;;;;;25.92;10.02;;;;;;;3.63;78.45;102472.09;5066453;28;20052;-74
2022/03/01 07:24:13;;;;;;;26.58;10.98;;;;;;;3.68;78.59;102463.78;5077703;28;20057;-78
2022/03/01 07:26:41;;;;;;;27.48;11.10;;;;;;;3.68;77.93;102456.34;5073343;28;20080;-75
2022/03/01 07:29:07;;;;;;;23.25;9.90;;;;;;;3.70;78.32;102454.13;5080460;28;20485;-75
2022/03/01 07:31:34;;;;;;;31.83;12.30;;;;;;;3.74;79.52;102462.53;5068915;28;20505;-80
2022/03/01 07:34:00;;;;;;;28.20;11.60;;;;;;;3.78;79.72;102460.81;5071743;28;20062;-82
2022/03/01 07:36:27;;;;;;;28.25;10.65;;;;;;;3.82;79.62;102467.28;5070933;28;20106;-79
2022/03/01 07:38:54;;;;;;;25.73;11.88;;;;;;;3.84;79.30;102463.09;5069674;28;20048;-77
2022/03/01 07:41:20;;;;;;;30.70;12.05;;;;;;;3.85;79.42;102456.50;5071780;28;20147;-77
2022/03/01 07:43:47;;;;;;;29.58;11.43;;;;;;;3.93;79.57;102469.47;5068442;28;20098;-78
2022/03/01 07:46:14;;;;;;;27.92;11.75;;;;;;;3.97;79.05;102470.44;5045443;28;20052;-76
2022/03/01 07:48:42;;;;;;;27.17;10.77;;;;;;;3.97;79.81;102470.44;5063126;28;20086;-77
2022/03/01 07:51:09;;;;;;;27.40;10.70;;;;;;;4.03;79.13;102471.97;5066841;28;20099;-80
2022/03/01 07:53:36;;;;;;;26.73;10.95;;;;;;;4.12;80.16;102475.53;5063439;28;20068;-79
2022/03/01 07:56:04;;;;;;;28.88;11.05;;;;;;;4.24;79.06;102477.72;5065289;28;20457;-80
2022/03/01 07:58:33;;;;;;;31.30;11.25;;;;;;;4.31;79.37;102469.88;5068760;28;20402;-81
2022/03/01 08:01:00;;;;;;;25.80;10.57;;;;;;;4.38;75.37;102465.56;5066011;28;20071;-81
2022/03/01 08:03:27;;;;;;;29.38;11.80;;;;;;;4.62;72.87;102473.44;5071495;28;20049;-80
2022/03/01 08:05:54;;;;;;;29.08;12.23;;;;;;;4.88;69.00;102479.84;5069858;28;20070;-78
2022/03/01 08:08:21;;;;;;;27.52;11.85;;;;;;;5.05;65.55;102475.25;5066018;28;20094;-76
2022/03/01 08:10:49;;;;;;;28.70;11.93;;;;;;;5.15;64.85;102452.19;5070889;28;20045;-80
2022/03/01 08:13:36;;;;;;;25.60;10.73;;;;;;;5.51;64.28;102471.16;5068198;28;20067;-81
2022/03/01 08:16:04;;;;;;;29.83;11.43;;;;;;;5.54;63.68;102456.78;5066933;28;20405;-76
2022/03/01 08:18:31;;;;;;;25.08;10.70;;;;;;;5.74;61.73;102464.38;5064646;28;20579;-72
2022/03/01 08:20:58;;;;;;;23.38;8.07;;;;;;;5.97;55.77;102477.66;5060563;28;20128;-80
2022/03/01 08:23:26;;;;;;;20.48;7.50;;;;;;;6.01;53.07;102464.09;5067719;28;20114;-77
2022/03/01 08:25:56;;;;;;;23.02;9.15;;;;;;;6.32;52.93;102486.69;5071787;28;20048;-78
2022/03/01 08:28:22;;;;;;;24.42;9.30;;;;;;;6.44;52.14;102486.81;5063708;28;20175;-80
2022/03/01 08:30:49;;;;;;;17.17;5.55;;;;;;;6.45;49.07;102503.00;5067640;28;20391;-78
2022/03/01 08:33:16;;;;;;;21.63;9.43;;;;;;;6.66;50.40;102489.38;5071005;28;20114;-80
2022/03/01 08:35:43;;;;;;;20.75;8.63;;;;;;;6.78;50.52;102481.25;5074533;28;20048;-80
2022/03/01 08:38:10;;;;;;;14.10;4.70;;;;;;;6.71;48.50;102469.91;5076519;28;20105;-81
2022/03/01 08:40:38;;;;;;;25.98;9.27;;;;;;;6.94;48.77;102482.28;5076404;28;20446;-79
2022/03/01 08:43:06;;;;;;;26.83;10.00;;;;;;;6.98;48.19;102474.97;5071605;28;21854;-82
2022/03/01 08:45:33;;;;;;;15.25;5.00;;;;;;;7.08;46.77;102491.13;5074612;28;20074;-83
2022/03/01 08:48:00;;;;;;;21.20;7.95;;;;;;;7.18;47.29;102483.31;5076422;28;20515;-84
2022/03/01 08:50:27;;;;;;;15.82;5.55;;;;;;;7.23;45.85;102485.06;5071014;28;20049;-79
2022/03/01 08:53:15;;;;;;;19.45;7.20;;;;;;;7.38;46.08;102493.56;5068696;28;20100;-83
2022/03/01 08:55:42;;;;;;;14.10;5.63;;;;;;;7.52;45.71;102487.81;5073605;28;20076;-81
2022/03/01 08:58:08;;;;;;;19.67;6.65;;;;;;;7.57;45.83;102491.16;5073590;28;20056;-79
2022/03/01 09:00:35;;;;;;;25.60;8.65;;;;;;;7.71;46.17;102500.00;5074402;28;20052;-84
2022/03/01 09:03:03;;;;;;;20.13;7.43;;;;;;;7.75;45.04;102489.91;5071553;28;20052;-77
2022/03/01 09:05:32;;;;;;;16.70;6.03;;;;;;;7.76;44.56;102485.19;5068719;28;20051;-79
2022/03/01 09:07:59;;;;;;;23.65;8.95;;;;;;;7.92;44.83;102498.06;5062163;28;20048;-79
2022/03/01 09:10:26;;;;;;;13.30;5.43;;;;;;;7.93;43.55;102498.84;5072792;28;20072;-79
2022/03/01 09:12:54;;;;;;;23.80;9.25;;;;;;;8.12;44.17;102501.94;5071519;28;20048;-81
2022/03/01 09:15:22;;;;;;;12.45;5.40;;;;;;;8.12;42.85;102499.19;5072394;28;20091;-79
2022/03/01 09:17:50;;;;;;;19.95;7.53;;;;;;;8.17;42.02;102500.94;5070728;28;20481;-79
2022/03/01 09:20:17;;;;;;;24.55;11.18;;;;;;;8.31;43.27;102496.78;5075679;28;20268;-81
2022/03/01 09:22:44;;;;;;;21.08;8.38;;;;;;;8.42;42.63;102497.97;5074231;28;20045;-80
2022/03/01 09:25:11;;;;;;;12.65;5.15;;;;;;;8.40;41.56;102511.28;5076988;28;20056;-81
2022/03/01 09:27:37;;;;;;;24.45;7.07;;;;;;;8.44;41.19;102505.91;5076884;28;20098;-80
2022/03/01 09:30:05;;;;;;;14.32;5.88;;;;;;;8.46;40.81;102504.41;5078135;28;20098;-80
2022/03/01 09:32:32;;;;;;;18.25;5.82;;;;;;;8.55;41.07;102510.66;5074778;28;20741;-79
2022/03/01 09:34:58;;;;;;;18.08;7.78;;;;;;;8.60;40.70;102501.34;5073542;28;20053;-80
2022/03/01 09:37:25;;;;;;;23.23;9.52;;;;;;;8.71;41.18;102497.00;5075108;28;20195;-82
2022/03/01 09:39:52;;;;;;;20.10;9.00;;;;;;;8.75;41.12;102471.13;5074737;28;20052;-81
2022/03/01 09:42:19;;;;;;;12.70;6.38;;;;;;;8.81;41.22;102468.97;5070256;28;20075;-83
2022/03/01 09:44:46;;;;;;;25.05;10.23;;;;;;;8.91;41.45;102474.81;5063582;28;20072;-84
2022/03/01 09:47:13;;;;;;;19.90;8.43;;;;;;;8.99;41.86;102473.09;5067207;28;20048;-80
2022/03/01 09:49:39;;;;;;;22.50;8.45;;;;;;;8.99;40.24;102468.41;5077701;28;20072;-81
2022/03/01 09:52:13;;;;;;;21.27;8.68;;;;;;;9.09;40.84;102476.22;5078657;28;20513;-82
2022/03/01 09:54:40;;;;;;;21.70;8.60;;;;;;;9.06;39.99;102471.41;5077527;28;20049;-81
2022/03/01 09:57:06;;;;;;;16.95;6.60;;;;;;;9.07;39.81;102486.00;5077063;28;20485;-79
2022/03/01 09:59:35;;;;;;;10.23;4.63;;;;;;;9.07;38.94;102491.50;5074073;28;20067;-78
2022/03/01 10:02:02;;;;;;;22.63;9.35;;;;;;;9.22;39.66;102483.34;5072345;28;20056;-79
2022/03/01 10:04:29;;;;;;;21.38;8.50;;;;;;;9.41;39.15;102491.88;5075918;28;20110;-79
2022/03/01 10:06:56;;;;;;;20.63;8.60;;;;;;;9.63;39.02;102488.63;5081338;28;20123;-82
2022/03/01 10:09:26;;;;;;;22.15;8.13;;;;;;;9.88;38.81;102486.59;5073760;28;20505;-79
2022/03/01 10:11:53;;;;;;;15.07;5.22;;;;;;;9.76;36.37;102492.94;5074422;28;20187;-80
2022/03/01 10:14:33;;;;;;;18.05;7.57;;;;;;;10.06;38.01;102504.56;5074791;28;20091;-82
2022/03/01 10:17:10;;;;;;;19.00;8.00;;;;;;;10.19;37.35;102500.56;5075325;28;20057;-79
2022/03/01 10:19:40;;;;;;;16.48;5.35;;;;;;;10.19;36.76;102498.63;5072211;28;20072;-79
2022/03/01 10:22:09;;;;;;;10.77;3.85;;;;;;;10.22;36.18;102497.91;5073088;28;20059;-79
2022/03/01 10:24:47;;;;;;;21.90;5.95;;;;;;;10.12;36.11;102501.19;5077982;28;20489;-75
2022/03/01 10:27:14;;;;;;;16.42;5.93;;;;;;;10.35;35.73;102491.16;5080828;28;20044;-80
2022/03/01 10:29:47;;;;;;;18.58;7.60;;;;;;;10.54;36.85;102488.53;5084953;28;20121;-78
2022/03/01 10:32:14;;;;;;;13.70;4.97;;;;;;;10.53;35.32;102484.16;5073105;28;20058;-78
2022/03/01 10:35:09;;;;;;;19.38;7.88;;;;;;;10.78;36.24;102493.13;5068255;28;20147;-80
2022/03/01 10:37:37;;;;;;;20.52;8.45;;;;;;;10.86;35.75;102483.81;5065018;28;20079;-78
2022/03/01 10:40:21;;;;;;;17.65;7.40;;;;;;;11.00;35.26;102489.72;5078316;28;20218;-78
2022/03/01 10:43:12;;;;;;;20.05;7.03;;;;;;;11.28;35.31;102504.31;5088228;28;20056;-83
2022/03/01 10:45:50;;;;;;;21.67;7.55;;;;;;;11.08;34.29;102491.53;5075195;28;20049;-83
2022/03/01 10:48:30;;;;;;;8.98;3.38;;;;;;;10.87;34.67;102506.78;5078051;28;20497;-82
2022/03/01 10:51:05;;;;;;;7.05;3.47;;;;;;;10.77;34.18;102485.16;5079695;28;20493;-81
2022/03/01 10:53:34;;;;;;;11.15;4.05;;;;;;;11.06;34.44;102493.84;5080036;28;20082;-83
2022/03/01 10:56:06;;;;;;;22.63;8.18;;;;;;;11.41;34.89;102482.81;5081030;28;20044;-81
2022/03/01 10:58:36;;;;;;;20.98;9.13;;;;;;;11.66;34.96;102498.88;5079063;28;20052;-82
2022/03/01 11:01:09;;;;;;;20.23;8.25;;;;;;;11.75;33.93;102470.94;5075059;28;20084;-81
2022/03/01 11:03:37;;;;;;;19.27;7.30;;;;;;;12.10;35.00;102474.47;5071880;28;20052;-84
2022/03/01 11:06:06;;;;;;;20.60;8.63;;;;;;;12.36;33.95;102467.06;5068721;28;20056;-80
2022/03/01 11:08:37;;;;;;;21.38;8.18;;;;;;;12.43;33.49;102466.41;5076958;28;20066;-82
2022/03/01 11:11:07;;;;;;;20.73;7.68;;;;;;;12.27;32.66;102472.06;5072975;28;20064;-83
2022/03/01 11:13:37;;;;;;;23.13;9.52;;;;;;;12.23;33.99;102459.28;5067313;28;20059;-79
2022/03/01 11:16:18;;;;;;;20.33;7.82;;;;;;;12.02;33.44;102469.94;5071949;28;20504;-80
2022/03/01 11:19:00;;;;;;;17.00;6.38;;;;;;;11.73;32.51;102474.09;5070607;28;20163;-83
2022/03/01 11:21:28;;;;;;;10.75;3.97;;;;;;;11.60;33.40;102474.53;5067740;28;20048;-82
2022/03/01 11:23:56;;;;;;;18.20;6.70;;;;;;;11.49;33.15;102476.25;5068489;28;20051;-83